Time;durP1;ratioP1;P1;durP2;ratioP2;P2;SDS_P1;SDS_P2;PMS_P1;PMS_P2;Temp;Humidity;BMP_temperature;BMP_pressure;BME280_temperature;BME280_humidity;BME280_pressure;Samples;Min_cycle;Max_cycle;Signal;HPM_P1;HPM_P2
2022/02/20 00:02:03;;;;;;;6.35;2.58;;;;;;;;;;6180956;23;20629;-80
2022/02/20 00:04:30;;;;;;;7.38;2.35;;;;;;;;;;6180035;23;20191;-79
2022/02/20 00:06:57;;;;;;;6.20;2.90;;;;;;;;;;6180424;23;20210;-78
2022/02/20 00:09:24;;;;;;;6.03;2.87;;;;;;;;;;6181751;23;20404;-79
2022/02/20 00:11:51;;;;;;;6.78;2.55;;;;;;;;;;6181760;23;20964;-81
2022/02/20 00:14:19;;;;;;;8.48;3.03;;;;;;;;;;6180641;23;20191;-78
2022/02/20 00:16:47;;;;;;;10.48;3.22;;;;;;;;;;6181050;23;20194;-79
2022/02/20 00:19:14;;;;;;;13.23;2.97;;;;;;;;;;6178543;23;20651;-80
2022/02/20 00:21:41;;;;;;;9.55;3.30;;;;;;;;;;6179580;23;20418;-80
2022/02/20 00:24:09;;;;;;;12.23;3.20;;;;;;;;;;6181441;23;20178;-79
2022/02/20 00:26:36;;;;;;;12.50;3.30;;;;;;;;;;6181519;23;20454;-79
2022/02/20 00:29:03;;;;;;;9.30;3.00;;;;;;;;;;6181383;23;20407;-80
2022/02/20 00:31:32;;;;;;;8.97;3.10;;;;;;;;;;6180841;23;20445;-78
2022/02/20 00:34:01;;;;;;;11.77;2.90;;;;;;;;;;6181897;23;20399;-78
2022/02/20 00:36:28;;;;;;;11.70;3.67;;;;;;;;;;6179169;23;20403;-80
2022/02/20 00:38:55;;;;;;;16.70;4.20;;;;;;;;;;6180257;23;20395;-79
2022/02/20 00:41:22;;;;;;;10.45;3.20;;;;;;;;;;6180741;23;20769;-80
2022/02/20 00:43:49;;;;;;;12.00;3.33;;;;;;;;;;6180285;23;20596;-78
2022/02/20 00:46:16;;;;;;;10.60;3.30;;;;;;;;;;6179762;23;20447;-79
2022/02/20 00:48:43;;;;;;;8.77;3.60;;;;;;;;;;6180695;23;20403;-79
2022/02/20 00:51:12;;;;;;;10.70;2.90;;;;;;;;;;6180257;23;20494;-78
2022/02/20 00:53:39;;;;;;;12.23;3.10;;;;;;;;;;6179008;23;20402;-79
2022/02/20 00:56:06;;;;;;;12.20;2.97;;;;;;;;;;6179120;23;20450;-78
2022/02/20 00:58:34;;;;;;;8.63;3.30;;;;;;;;;;6180557;23;20405;-79
2022/02/20 01:01:01;;;;;;;7.00;2.53;;;;;;;;;;6180593;23;20457;-78
2022/02/20 01:03:28;;;;;;;8.15;2.85;;;;;;;;;;6178849;23;20403;-79
2022/02/20 01:05:55;;;;;;;7.18;2.33;;;;;;;;;;6181590;23;20525;-78
2022/02/20 01:08:24;;;;;;;10.15;2.85;;;;;;;;;;6182440;23;20515;-79
2022/02/20 01:10:51;;;;;;;5.13;2.33;;;;;;;;;;6182872;23;20178;-80
2022/02/20 01:13:19;;;;;;;11.18;2.78;;;;;;;;;;6179976;23;20635;-79
2022/02/20 01:15:46;;;;;;;7.30;2.25;;;;;;;;;;6180194;23;20701;-79
2022/02/20 01:18:14;;;;;;;4.80;2.40;;;;;;;;;;6180104;23;21487;-79
2022/02/20 01:20:41;;;;;;;3.22;2.03;;;;;;;;;;6180819;23;20246;-79
2022/02/20 01:23:08;;;;;;;6.80;2.20;;;;;;;;;;6179625;23;20174;-79
2022/02/20 01:25:36;;;;;;;3.58;1.88;;;;;;;;;;6180585;23;20226;-80
2022/02/20 01:28:04;;;;;;;7.13;2.53;;;;;;;;;;6180822;23;20200;-79
2022/02/20 01:30:31;;;;;;;4.50;2.13;;;;;;;;;;6182583;23;20174;-79
2022/02/20 01:32:59;;;;;;;4.07;1.92;;;;;;;;;;6182436;23;20174;-80
2022/02/20 01:35:26;;;;;;;6.47;2.20;;;;;;;;;;6180660;23;20306;-80
2022/02/20 01:37:53;;;;;;;4.68;2.20;;;;;;;;;;6179152;23;20182;-79
2022/02/20 01:40:20;;;;;;;7.60;2.28;;;;;;;;;;6178558;23;20175;-81
2022/02/20 01:42:49;;;;;;;7.45;1.90;;;;;;;;;;6180821;23;20171;-79
2022/02/20 01:45:17;;;;;;;7.13;2.20;;;;;;;;;;6178167;23;20508;-79
2022/02/20 01:47:44;;;;;;;3.55;1.83;;;;;;;;;;6178319;23;20202;-79
2022/02/20 01:50:15;;;;;;;3.47;2.53;;;;;;;;;;6180107;23;20193;-79
2022/02/20 01:52:42;;;;;;;4.20;1.75;;;;;;;;;;6178554;23;20740;-79
2022/02/20 01:55:10;;;;;;;7.40;2.00;;;;;;;;;;6179812;23;20194;-79
2022/02/20 01:57:38;;;;;;;5.20;1.70;;;;;;;;;;6176766;23;20167;-79
2022/02/20 02:00:08;;;;;;;3.30;2.10;;;;;;;;;;6179954;23;20640;-79
2022/02/20 02:02:35;;;;;;;5.45;1.95;;;;;;;;;;6178281;23;20167;-79
2022/02/20 02:05:03;;;;;;;6.07;2.45;;;;;;;;;;6181371;23;20528;-79
2022/02/20 02:07:30;;;;;;;6.70;2.20;;;;;;;;;;6180696;23;20195;-80
2022/02/20 02:09:58;;;;;;;5.28;3.03;;;;;;;;;;6180226;23;20178;-80
2022/02/20 02:12:25;;;;;;;8.60;2.20;;;;;;;;;;6179503;23;20178;-80
2022/02/20 02:14:52;;;;;;;2.58;2.10;;;;;;;;;;6177759;23;20187;-80
2022/02/20 02:17:21;;;;;;;2.97;2.50;;;;;;;;;;6177543;23;20190;-79
2022/02/20 02:19:48;;;;;;;5.43;2.50;;;;;;;;;;6179436;23;20174;-79
2022/02/20 02:22:18;;;;;;;6.40;2.53;;;;;;;;;;6180178;23;20190;-79
2022/02/20 02:24:45;;;;;;;6.38;2.50;;;;;;;;;;6178528;23;20577;-79
2022/02/20 02:27:14;;;;;;;14.75;4.40;;;;;;;;;;6179567;23;20210;-80
2022/02/20 02:29:41;;;;;;;6.88;3.08;;;;;;;;;;6179587;23;20172;-79
2022/02/20 02:32:09;;;;;;;5.70;3.15;;;;;;;;;;6178227;23;20171;-79
2022/02/20 02:34:36;;;;;;;4.78;3.00;;;;;;;;;;6177409;23;20194;-79
2022/02/20 02:37:04;;;;;;;5.80;3.35;;;;;;;;;;6179924;23;20678;-79
2022/02/20 02:39:35;;;;;;;7.13;3.05;;;;;;;;;;6180285;23;20200;-79
2022/02/20 02:42:02;;;;;;;11.23;3.00;;;;;;;;;;6180553;23;20470;-78
2022/02/20 02:44:29;;;;;;;4.05;2.90;;;;;;;;;;6177131;23;20195;-80
2022/02/20 02:46:56;;;;;;;7.65;3.25;;;;;;;;;;6179330;23;20497;-79
2022/02/20 02:49:23;;;;;;;10.75;2.97;;;;;;;;;;6181185;23;20181;-79
2022/02/20 02:51:50;;;;;;;5.90;3.13;;;;;;;;;;6182101;23;20182;-79
2022/02/20 02:54:18;;;;;;;4.95;3.30;;;;;;;;;;6180745;23;20225;-79
2022/02/20 02:56:47;;;;;;;6.55;3.65;;;;;;;;;;6181556;23;20171;-78
2022/02/20 02:59:14;;;;;;;6.10;3.80;;;;;;;;;;6181921;23;20213;-78
2022/02/20 03:01:41;;;;;;;6.38;3.10;;;;;;;;;;6179584;23;20202;-79
2022/02/20 03:04:09;;;;;;;5.13;3.00;;;;;;;;;;6175484;23;20232;-80
2022/02/20 03:06:36;;;;;;;6.10;3.90;;;;;;;;;;6182004;23;20186;-80
2022/02/20 03:09:06;;;;;;;8.57;3.00;;;;;;;;;;6182036;23;20203;-79
2022/02/20 03:11:33;;;;;;;6.25;3.20;;;;;;;;;;6182218;23;20187;-78
2022/02/20 03:14:02;;;;;;;9.35;3.97;;;;;;;;;;6181330;23;20168;-79
2022/02/20 03:16:29;;;;;;;7.95;3.17;;;;;;;;;;6182014;23;20175;-79
2022/02/20 03:18:57;;;;;;;7.10;3.50;;;;;;;;;;6184709;23;20176;-79
2022/02/20 03:21:25;;;;;;;6.90;3.83;;;;;;;;;;6184802;23;20466;-78
2022/02/20 03:23:53;;;;;;;6.57;3.08;;;;;;;;;;6181918;23;20178;-79
2022/02/20 03:26:20;;;;;;;5.00;2.95;;;;;;;;;;6180962;23;20196;-78
2022/02/20 03:28:47;;;;;;;5.35;3.35;;;;;;;;;;6181143;23;20281;-78
2022/02/20 03:31:15;;;;;;;7.07;3.50;;;;;;;;;;6181388;23;20174;-78
2022/02/20 03:33:45;;;;;;;4.45;3.20;;;;;;;;;;6181226;23;20190;-78
2022/02/20 03:36:12;;;;;;;4.55;3.15;;;;;;;;;;6182301;23;20187;-79
2022/02/20 03:38:40;;;;;;;7.03;2.97;;;;;;;;;;6182118;23;20172;-79
2022/02/20 03:41:07;;;;;;;6.25;3.47;;;;;;;;;;6182430;23;20172;-78
2022/02/20 03:43:34;;;;;;;4.63;2.53;;;;;;;;;;6184029;23;20488;-78
2022/02/20 03:46:02;;;;;;;10.80;3.95;;;;;;;;;;6182678;23;20199;-78
2022/02/20 03:48:30;;;;;;;8.00;3.38;;;;;;;;;;6180932;23;20226;-79
2022/02/20 03:50:57;;;;;;;6.32;3.47;;;;;;;;;;6177709;23;20176;-79
2022/02/20 03:53:25;;;;;;;9.18;3.22;;;;;;;;;;6180199;23;20168;-78
2022/02/20 03:55:52;;;;;;;6.40;3.05;;;;;;;;;;6182081;23;20215;-78
2022/02/20 03:58:19;;;;;;;5.75;3.20;;;;;;;;;;6182106;23;20167;-79
2022/02/20 04:00:46;;;;;;;4.95;3.78;;;;;;;;;;6180045;23;20219;-80
2022/02/20 04:03:13;;;;;;;5.75;3.25;;;;;;;;;;6182863;23;20171;-79
2022/02/20 04:05:42;;;;;;;6.22;3.50;;;;;;;;;;6180202;23;20189;-79
2022/02/20 04:08:09;;;;;;;6.72;3.67;;;;;;;;;;6178123;23;20206;-78
2022/02/20 04:10:36;;;;;;;5.15;3.35;;;;;;;;;;6179438;23;20172;-78
2022/02/20 04:13:04;;;;;;;9.10;3.90;;;;;;;;;;6181487;23;20168;-79
2022/02/20 04:15:31;;;;;;;7.28;3.28;;;;;;;;;;6181624;23;20477;-79
2022/02/20 04:17:58;;;;;;;7.65;3.50;;;;;;;;;;6180675;23;20176;-80
2022/02/20 04:20:25;;;;;;;6.05;3.10;;;;;;;;;;6181269;23;20215;-78
2022/02/20 04:22:54;;;;;;;6.32;3.50;;;;;;;;;;6180904;23;20172;-79
2022/02/20 04:25:21;;;;;;;8.60;3.83;;;;;;;;;;6177886;23;20821;-79
2022/02/20 04:27:48;;;;;;;8.38;3.85;;;;;;;;;;6181529;23;20195;-78
2022/02/20 04:30:16;;;;;;;7.57;3.50;;;;;;;;;;6180642;23;20174;-78
2022/02/20 04:32:44;;;;;;;5.75;3.42;;;;;;;;;;6180503;23;20175;-79
2022/02/20 04:35:11;;;;;;;2.80;2.60;;;;;;;;;;6181965;23;20594;-78
2022/02/20 04:37:38;;;;;;;8.95;3.42;;;;;;;;;;6182107;23;20178;-78
2022/02/20 04:40:07;;;;;;;5.72;3.60;;;;;;;;;;6180679;23;20175;-79
2022/02/20 04:42:34;;;;;;;7.97;3.80;;;;;;;;;;6180384;23;20485;-79
2022/02/20 04:45:02;;;;;;;5.20;3.22;;;;;;;;;;6179196;23;20520;-79
2022/02/20 04:47:29;;;;;;;10.07;4.35;;;;;;;;;;6178288;23;20471;-79
2022/02/20 04:49:56;;;;;;;9.20;3.38;;;;;;;;;;6180548;23;20174;-78
2022/02/20 04:52:23;;;;;;;7.38;3.42;;;;;;;;;;6182088;23;20178;-79
2022/02/20 04:54:51;;;;;;;7.25;3.80;;;;;;;;;;6182239;23;20191;-79
2022/02/20 04:57:19;;;;;;;5.78;3.65;;;;;;;;;;6178266;23;20175;-78
2022/02/20 04:59:46;;;;;;;9.55;4.18;;;;;;;;;;6178445;23;20175;-79
2022/02/20 05:02:13;;;;;;;5.82;3.90;;;;;;;;;;6179241;23;20172;-78
2022/02/20 05:04:40;;;;;;;7.80;4.00;;;;;;;;;;6179775;23;20456;-79
2022/02/20 05:07:08;;;;;;;5.05;3.42;;;;;;;;;;6178643;23;20171;-80
2022/02/20 05:09:36;;;;;;;7.65;4.45;;;;;;;;;;6181036;23;20203;-78
2022/02/20 05:12:03;;;;;;;17.95;4.70;;;;;;;;;;6178385;23;20168;-80
2022/02/20 05:14:32;;;;;;;7.22;3.75;;;;;;;;;;6180193;23;20198;-78
2022/02/20 05:16:59;;;;;;;5.25;3.60;;;;;;;;;;6179234;23;20182;-79
2022/02/20 05:19:26;;;;;;;7.65;4.18;;;;;;;;;;6180019;23;20186;-79
2022/02/20 05:21:53;;;;;;;5.18;3.75;;;;;;;;;;6180944;23;20628;-77
2022/02/20 05:24:21;;;;;;;5.10;4.00;;;;;;;;;;6180179;23;20187;-79
2022/02/20 05:26:48;;;;;;;7.60;4.00;;;;;;;;;;6177786;23;20172;-80
2022/02/20 05:29:15;;;;;;;5.88;3.55;;;;;;;;;;6180904;23;20234;-79
2022/02/20 05:31:44;;;;;;;7.20;4.18;;;;;;;;;;6179261;23;20174;-79
2022/02/20 05:34:11;;;;;;;5.07;4.35;;;;;;;;;;6178533;23;20223;-79
2022/02/20 05:36:38;;;;;;;5.97;3.55;;;;;;;;;;6178157;23;20171;-79
2022/02/20 05:39:05;;;;;;;7.00;3.13;;;;;;;;;;6179465;23;20246;-78
2022/02/20 05:41:32;;;;;;;6.30;3.40;;;;;;;;;;6180193;23;20167;-78
2022/02/20 05:43:59;;;;;;;8.30;3.00;;;;;;;;;;6181153;23;20179;-78
2022/02/20 05:46:26;;;;;;;6.68;3.28;;;;;;;;;;6181441;23;20171;-79
2022/02/20 05:48:55;;;;;;;5.85;3.15;;;;;;;;;;6179013;23;20199;-78
2022/02/20 05:51:22;;;;;;;5.35;2.70;;;;;;;;;;6178922;23;20620;-78
2022/02/20 05:53:49;;;;;;;8.48;2.85;;;;;;;;;;6180854;23;20178;-78
2022/02/20 05:56:17;;;;;;;7.85;2.42;;;;;;;;;;6180733;23;20167;-80
2022/02/20 05:58:44;;;;;;;9.20;3.05;;;;;;;;;;6180607;23;20513;-79
2022/02/20 06:01:12;;;;;;;10.00;3.25;;;;;;;;;;6179455;23;20167;-78
2022/02/20 06:03:39;;;;;;;11.02;3.10;;;;;;;;;;6180483;23;20171;-80
2022/02/20 06:06:07;;;;;;;5.22;3.15;;;;;;;;;;6179811;23;20196;-80
2022/02/20 06:08:34;;;;;;;9.60;3.45;;;;;;;;;;6178831;23;20203;-79
2022/02/20 06:11:01;;;;;;;12.10;3.70;;;;;;;;;;6180753;23;20167;-81
2022/02/20 06:13:29;;;;;;;7.35;3.10;;;;;;;;;;6180492;23;20514;-78
2022/02/20 06:15:56;;;;;;;11.10;4.10;;;;;;;;;;6179177;23;20661;-80
2022/02/20 06:18:23;;;;;;;7.78;3.40;;;;;;;;;;6181573;23;20174;-80
2022/02/20 06:20:50;;;;;;;8.90;3.80;;;;;;;;;;6180476;23;20179;-79
2022/02/20 06:23:19;;;;;;;8.75;3.28;;;;;;;;;;6180188;23;20174;-79
2022/02/20 06:25:46;;;;;;;16.33;4.15;;;;;;;;;;6179560;23;20221;-79
2022/02/20 06:28:13;;;;;;;7.80;3.20;;;;;;;;;;6179143;23;20663;-79
2022/02/20 06:30:40;;;;;;;14.73;3.50;;;;;;;;;;6181039;23;20178;-79
2022/02/20 06:33:07;;;;;;;13.48;3.30;;;;;;;;;;6180321;23;20465;-80
2022/02/20 06:35:34;;;;;;;7.68;3.22;;;;;;;;;;6180424;23;20193;-79
2022/02/20 06:38:02;;;;;;;11.07;3.33;;;;;;;;;;6180038;23;20182;-80
2022/02/20 06:40:30;;;;;;;14.38;3.97;;;;;;;;;;6178927;23;20636;-78
2022/02/20 06:42:57;;;;;;;9.15;3.45;;;;;;;;;;6179309;23;20168;-79
2022/02/20 06:45:25;;;;;;;11.98;3.50;;;;;;;;;;6178888;23;20187;-79
2022/02/20 06:47:52;;;;;;;10.30;3.70;;;;;;;;;;6178218;23;20167;-82
2022/02/20 06:50:19;;;;;;;10.10;3.33;;;;;;;;;;6178863;23;20503;-81
2022/02/20 06:52:46;;;;;;;14.27;4.60;;;;;;;;;;6179605;23;20168;-80
2022/02/20 06:55:13;;;;;;;9.23;3.55;;;;;;;;;;6180553;23;20509;-79
2022/02/20 06:57:42;;;;;;;14.15;4.20;;;;;;;;;;6179711;23;20174;-77
2022/02/20 07:00:11;;;;;;;10.40;3.75;;;;;;;;;;6179889;23;20191;-80
2022/02/20 07:02:38;;;;;;;13.93;3.45;;;;;;;;;;6176394;23;20180;-78
2022/02/20 07:05:06;;;;;;;8.30;3.10;;;;;;;;;;6179460;23;20524;-80
2022/02/20 07:07:34;;;;;;;10.82;3.00;;;;;;;;;;6180167;23;20270;-79
2022/02/20 07:10:27;;;;;;;12.40;3.30;;;;;;;;;;6180698;23;20199;-80
2022/02/20 07:12:57;;;;;;;11.32;3.35;;;;;;;;;;6180251;23;20255;-79
2022/02/20 07:15:25;;;;;;;7.85;2.95;;;;;;;;;;6182016;23;20270;-81
2022/02/20 07:17:52;;;;;;;12.82;3.75;;;;;;;;;;6181700;23;20465;-82
2022/02/20 07:20:19;;;;;;;8.20;2.90;;;;;;;;;;6176804;23;20394;-85
2022/02/20 07:22:46;;;;;;;9.05;3.65;;;;;;;;;;6179211;23;20174;-84
2022/02/20 07:25:14;;;;;;;16.92;3.90;;;;;;;;;;6178822;23;20195;-84
2022/02/20 07:27:41;;;;;;;12.48;3.13;;;;;;;;;;6180288;23;20190;-77
2022/02/20 07:30:11;;;;;;;13.27;3.97;;;;;;;;;;6179055;23;20206;-79
2022/02/20 07:32:38;;;;;;;14.30;3.45;;;;;;;;;;6179224;23;20190;-80
2022/02/20 07:35:06;;;;;;;9.45;2.85;;;;;;;;;;6181002;23;20246;-79
2022/02/20 07:37:33;;;;;;;9.10;2.75;;;;;;;;;;6185070;23;20172;-78
2022/02/20 07:40:01;;;;;;;8.70;2.97;;;;;;;;;;6182581;23;20258;-78
2022/02/20 07:42:28;;;;;;;7.30;2.85;;;;;;;;;;6180889;23;20178;-76
2022/02/20 07:44:57;;;;;;;17.52;3.78;;;;;;;;;;6179796;23;20278;-76
2022/02/20 07:47:25;;;;;;;15.48;3.85;;;;;;;;;;6180265;23;20171;-80
2022/02/20 07:49:53;;;;;;;13.55;4.35;;;;;;;;;;6181350;23;20196;-79
2022/02/20 07:52:21;;;;;;;11.57;3.90;;;;;;;;;;6182499;23;20173;-77
2022/02/20 07:54:48;;;;;;;6.60;2.80;;;;;;;;;;6180532;23;20194;-77
2022/02/20 07:57:15;;;;;;;13.85;2.85;;;;;;;;;;6182577;23;20470;-81
2022/02/20 07:59:43;;;;;;;9.10;3.88;;;;;;;;;;6180283;23;20178;-80
2022/02/20 08:02:10;;;;;;;9.27;2.30;;;;;;;;;;6179849;23;20174;-77
2022/02/20 08:04:38;;;;;;;4.72;2.20;;;;;;;;;;6178967;23;20191;-81
2022/02/20 08:07:08;;;;;;;7.70;2.90;;;;;;;;;;6180717;23;20172;-81
2022/02/20 08:09:35;;;;;;;8.23;2.10;;;;;;;;;;6179575;23;20199;-78
2022/02/20 08:12:03;;;;;;;8.55;2.35;;;;;;;;;;6181464;23;20230;-77
2022/02/20 08:14:30;;;;;;;5.57;2.45;;;;;;;;;;6181798;23;20270;-80
2022/02/20 08:16:57;;;;;;;3.08;1.98;;;;;;;;;;6179634;23;20177;-79
2022/02/20 08:19:25;;;;;;;14.65;2.80;;;;;;;;;;6178735;23;20229;-76
2022/02/20 08:21:53;;;;;;;3.78;2.05;;;;;;;;;;6180260;23;20178;-80
2022/02/20 08:24:20;;;;;;;7.30;3.10;;;;;;;;;;6180592;23;20194;-78
2022/02/20 08:26:48;;;;;;;7.57;2.13;;;;;;;;;;6181930;23;20402;-76
2022/02/20 08:29:19;;;;;;;5.60;2.70;;;;;;;;;;6181022;23;20446;-76
2022/02/20 08:31:46;;;;;;;4.83;2.37;;;;;;;;;;6181605;23;20406;-76
2022/02/20 08:34:13;;;;;;;5.03;1.93;;;;;;;;;;6180452;23;20434;-77
2022/02/20 08:36:40;;;;;;;6.60;2.33;;;;;;;;;;6179979;23;20394;-78
2022/02/20 08:39:09;;;;;;;2.85;2.05;;;;;;;;;;6178596;23;20485;-81
2022/02/20 08:41:36;;;;;;;6.10;2.30;;;;;;;;;;6178015;23;20277;-77
2022/02/20 08:44:04;;;;;;;4.13;1.60;;;;;;;;;;6180860;23;20414;-78
2022/02/20 08:46:31;;;;;;;2.97;1.60;;;;;;;;;;6181362;23;20406;-78
2022/02/20 08:48:58;;;;;;;1.97;1.30;;;;;;;;;;6179040;23;20446;-78
2022/02/20 08:51:25;;;;;;;2.33;1.38;;;;;;;;;;6180160;23;20403;-78
2022/02/20 08:53:52;;;;;;;1.60;1.30;;;;;;;;;;6179161;23;20254;-79
2022/02/20 08:56:22;;;;;;;1.50;1.40;;;;;;;;;;6180512;23;20407;-76
2022/02/20 08:58:49;;;;;;;4.20;1.47;;;;;;;;;;6178905;23;20894;-81
2022/02/20 09:01:16;;;;;;;2.47;1.13;;;;;;;;;;6171686;23;20437;-78
2022/02/20 09:03:43;;;;;;;1.73;1.17;;;;;;;;;;6179121;23;20414;-80
2022/02/20 09:06:11;;;;;;;1.30;1.20;;;;;;;;;;6180395;23;20457;-78
2022/02/20 09:08:38;;;;;;;1.93;1.13;;;;;;;;;;6182199;23;20405;-76
2022/02/20 09:11:06;;;;;;;1.60;1.30;;;;;;;;;;6179747;23;20884;-82
2022/02/20 09:13:34;;;;;;;2.27;1.70;;;;;;;;;;6179099;23;20940;-77
2022/02/20 09:16:01;;;;;;;5.33;2.33;;;;;;;;;;6179942;23;20430;-77
2022/02/20 09:18:28;;;;;;;3.63;1.17;;;;;;;;;;6181462;23;20879;-78
2022/02/20 09:20:56;;;;;;;2.00;1.50;;;;;;;;;;6180781;23;20410;-77
2022/02/20 09:23:23;;;;;;;2.70;1.87;;;;;;;;;;6182476;23;20406;-79
2022/02/20 09:25:50;;;;;;;2.77;2.40;;;;;;;;;;6180144;23;20434;-79
2022/02/20 09:28:18;;;;;;;2.63;1.30;;;;;;;;;;6183570;23;20442;-79
2022/02/20 09:30:46;;;;;;;1.83;1.20;;;;;;;;;;6180457;23;20446;-77
2022/02/20 09:33:14;;;;;;;2.40;1.80;;;;;;;;;;6177465;23;20702;-80
2022/02/20 09:35:41;;;;;;;2.33;1.40;;;;;;;;;;6178374;23;20421;-82
2022/02/20 09:38:08;;;;;;;1.20;1.00;;;;;;;;;;6179196;23;20403;-80
2022/02/20 09:40:35;;;;;;;2.33;1.40;;;;;;;;;;6176322;23;20403;-76
2022/02/20 09:43:03;;;;;;;2.40;1.67;;;;;;;;;;6179501;23;20880;-81
2022/02/20 09:45:30;;;;;;;1.93;1.40;;;;;;;;;;6181047;23;20441;-78
2022/02/20 09:48:00;;;;;;;2.93;1.30;;;;;;;;;;6182837;23;20406;-78
2022/02/20 09:50:28;;;;;;;2.63;1.37;;;;;;;;;;6181329;23;20446;-77
2022/02/20 09:52:55;;;;;;;2.53;1.50;;;;;;;;;;6182116;23;20402;-77
2022/02/20 09:55:22;;;;;;;2.50;1.10;;;;;;;;;;6177750;23;20433;-79
2022/02/20 09:57:53;;;;;;;2.63;1.50;;;;;;;;;;6179549;23;20430;-79
2022/02/20 10:00:20;;;;;;;1.97;1.07;;;;;;;;;;6177619;23;20403;-78
2022/02/20 10:02:50;;;;;;;5.87;1.83;;;;;;;;;;6180679;23;20402;-78
2022/02/20 10:05:19;;;;;;;3.87;1.87;;;;;;;;;;6179578;23;20419;-77
2022/02/20 10:07:47;;;;;;;3.30;1.43;;;;;;;;;;6179468;23;20406;-80
2022/02/20 10:10:15;;;;;;;4.43;2.70;;;;;;;;;;6182644;23;20486;-77
2022/02/20 10:12:43;;;;;;;3.13;1.30;;;;;;;;;;6182472;23;20409;-78
2022/02/20 10:15:25;;;;;;;3.30;1.23;;;;;;;;;;6180153;23;20423;-79
2022/02/20 10:17:52;;;;;;;3.77;1.53;;;;;;;;;;6178278;23;20409;-78
2022/02/20 10:20:25;;;;;;;6.33;1.63;;;;;;;;;;6178048;23;20403;-79
2022/02/20 10:22:52;;;;;;;2.73;1.50;;;;;;;;;;6177496;23;20789;-80
2022/02/20 10:25:20;;;;;;;3.63;1.70;;;;;;;;;;6177913;23;20804;-77
2022/02/20 10:27:49;;;;;;;3.47;1.53;;;;;;;;;;6180874;23;20481;-79
2022/02/20 10:30:21;;;;;;;3.70;1.67;;;;;;;;;;6179302;23;20930;-82
2022/02/20 10:33:03;;;;;;;2.60;1.10;;;;;;;;;;6178989;23;20477;-76
2022/02/20 10:35:35;;;;;;;1.40;1.20;;;;;;;;;;6177688;23;20426;-78
2022/02/20 10:38:10;;;;;;;2.57;1.23;;;;;;;;;;6178248;23;20402;-77
2022/02/20 10:40:39;;;;;;;4.33;1.37;;;;;;;;;;6179848;23;20420;-77
2022/02/20 10:43:07;;;;;;;3.23;1.47;;;;;;;;;;6179097;23;20411;-79
2022/02/20 10:45:35;;;;;;;2.20;1.33;;;;;;;;;;6178083;23;20422;-80
2022/02/20 10:48:03;;;;;;;2.67;1.57;;;;;;;;;;6178955;23;20732;-78
2022/02/20 10:50:31;;;;;;;2.13;1.30;;;;;;;;;;6177940;23;20451;-77
2022/02/20 10:53:08;;;;;;;1.27;0.90;;;;;;;;;;6178933;23;20407;-77
2022/02/20 10:55:36;;;;;;;3.60;1.63;;;;;;;;;;6177342;23;20429;-78
2022/02/20 10:58:09;;;;;;;1.23;1.10;;;;;;;;;;6178512;23;20419;-76
2022/02/20 11:00:37;;;;;;;1.70;1.30;;;;;;;;;;6176785;23;20395;-77
2022/02/20 11:03:06;;;;;;;1.30;1.20;;;;;;;;;;6180406;23;20498;-79
2022/02/20 11:05:33;;;;;;;2.40;1.10;;;;;;;;;;6180138;23;20441;-77
2022/02/20 11:08:01;;;;;;;2.33;1.47;;;;;;;;;;6180279;23;20405;-80
2022/02/20 11:10:29;;;;;;;3.27;1.53;;;;;;;;;;6180922;23;20442;-83
2022/02/20 11:12:56;;;;;;;2.97;1.77;;;;;;;;;;6179423;23;20888;-79
2022/02/20 11:15:24;;;;;;;1.50;1.30;;;;;;;;;;6181547;23;20422;-78
2022/02/20 11:17:52;;;;;;;2.17;1.30;;;;;;;;;;6180721;23;20768;-79
2022/02/20 11:20:20;;;;;;;3.53;1.70;;;;;;;;;;6182220;23;20408;-77
2022/02/20 11:22:49;;;;;;;1.50;1.30;;;;;;;;;;6180299;23;20891;-81
2022/02/20 11:25:17;;;;;;;2.20;1.80;;;;;;;;;;6179968;23;20445;-78
2022/02/20 11:27:46;;;;;;;4.73;1.60;;;;;;;;;;6179329;23;20399;-80
2022/02/20 11:30:13;;;;;;;2.73;1.60;;;;;;;;;;6178512;23;20453;-78
2022/02/20 11:32:41;;;;;;;5.90;1.60;;;;;;;;;;6176706;23;20411;-80
2022/02/20 11:35:10;;;;;;;3.83;1.50;;;;;;;;;;6176699;23;20927;-81
2022/02/20 11:37:52;;;;;;;3.30;1.50;;;;;;;;;;6180679;23;20417;-80
2022/02/20 11:40:20;;;;;;;5.10;1.70;;;;;;;;;;6181042;23;20402;-80
2022/02/20 11:43:04;;;;;;;3.53;1.90;;;;;;;;;;6180093;23;20395;-78
2022/02/20 11:45:35;;;;;;;4.93;2.10;;;;;;;;;;6177846;23;20427;-83
2022/02/20 11:48:02;;;;;;;6.40;2.23;;;;;;;;;;6181433;23;20406;-78
2022/02/20 11:50:34;;;;;;;5.30;2.50;;;;;;;;;;6178888;23;20442;-81
2022/02/20 11:53:02;;;;;;;6.90;1.80;;;;;;;;;;6182466;23;20403;-81
2022/02/20 11:55:31;;;;;;;4.07;1.80;;;;;;;;;;6182428;23;20472;-77
2022/02/20 11:58:13;;;;;;;3.30;1.77;;;;;;;;;;6181629;23;20696;-80
2022/02/20 12:00:42;;;;;;;6.77;2.00;;;;;;;;;;6182426;23;20407;-79
2022/02/20 12:03:17;;;;;;;5.40;2.07;;;;;;;;;;6183177;23;20399;-79
2022/02/20 12:06:04;;;;;;;4.80;1.90;;;;;;;;;;6180314;23;20422;-79
2022/02/20 12:08:33;;;;;;;4.53;1.70;;;;;;;;;;6179326;23;20497;-79
2022/02/20 12:11:10;;;;;;;9.20;2.07;;;;;;;;;;6180615;23;20443;-78
2022/02/20 12:13:45;;;;;;;3.30;1.57;;;;;;;;;;6181239;23;20741;-79
2022/02/20 12:16:21;;;;;;;5.00;2.53;;;;;;;;;;6181090;23;20458;-83
2022/02/20 12:19:03;;;;;;;4.23;2.13;;;;;;;;;;6181741;23;21183;-77
2022/02/20 12:21:31;;;;;;;6.50;2.70;;;;;;;;;;6180776;23;20493;-79
2022/02/20 12:23:59;;;;;;;9.00;2.00;;;;;;;;;;6182589;23;20400;-78
2022/02/20 12:26:41;;;;;;;7.17;2.37;;;;;;;;;;6183273;23;20445;-81
2022/02/20 12:29:13;;;;;;;6.87;2.10;;;;;;;;;;6178915;23;20786;-79
2022/02/20 12:31:54;;;;;;;5.67;2.40;;;;;;;;;;6180534;23;20471;-79
2022/02/20 12:34:36;;;;;;;2.53;1.60;;;;;;;;;;6177945;23;20429;-80
2022/02/20 12:37:05;;;;;;;7.10;2.27;;;;;;;;;;6180332;23;20755;-76
2022/02/20 12:39:33;;;;;;;6.73;2.77;;;;;;;;;;6182850;23;20406;-78
2022/02/20 12:42:03;;;;;;;6.17;2.50;;;;;;;;;;6182464;23;20406;-77
2022/02/20 12:44:31;;;;;;;5.60;2.53;;;;;;;;;;6183236;23;20410;-81
2022/02/20 12:46:58;;;;;;;6.90;2.40;;;;;;;;;;6182422;23;20410;-78
2022/02/20 12:49:26;;;;;;;8.20;3.90;;;;;;;;;;6181000;23;20402;-76
2022/02/20 12:52:02;;;;;;;5.40;2.53;;;;;;;;;;6180738;23;20446;-78
2022/02/20 12:54:31;;;;;;;9.40;3.30;;;;;;;;;;6180017;23;20450;-82
2022/02/20 12:57:03;;;;;;;7.40;3.03;;;;;;;;;;6179860;23;20395;-81
2022/02/20 12:59:30;;;;;;;10.87;2.63;;;;;;;;;;6181643;23;20399;-84
2022/02/20 13:02:01;;;;;;;5.00;2.30;;;;;;;;;;6181031;23;20884;-78
2022/02/20 13:04:29;;;;;;;6.93;2.30;;;;;;;;;;6180720;23;20423;-77
2022/02/20 13:06:59;;;;;;;11.50;2.80;;;;;;;;;;6180681;23;20403;-79
2022/02/20 13:09:40;;;;;;;8.50;3.00;;;;;;;;;;6180163;23;20407;-83
2022/02/20 13:12:22;;;;;;;7.00;2.60;;;;;;;;;;6178082;23;20446;-82
2022/02/20 13:15:04;;;;;;;9.40;3.17;;;;;;;;;;6178880;23;20426;-78
2022/02/20 13:17:46;;;;;;;5.80;2.60;;;;;;;;;;6179542;23;20399;-78
2022/02/20 13:20:28;;;;;;;6.43;2.60;;;;;;;;;;6178943;23;20403;-78
2022/02/20 13:22:55;;;;;;;6.50;2.47;;;;;;;;;;6178554;23;20405;-79
2022/02/20 13:25:24;;;;;;;7.20;3.20;;;;;;;;;;6177094;23;20521;-78
2022/02/20 13:27:52;;;;;;;8.90;2.97;;;;;;;;;;6178509;23;20409;-79
2022/02/20 13:30:27;;;;;;;6.80;2.43;;;;;;;;;;6176713;23;20442;-82
2022/02/20 13:32:54;;;;;;;5.43;3.20;;;;;;;;;;6179447;23;20395;-79
2022/02/20 13:35:36;;;;;;;9.17;3.43;;;;;;;;;;6179609;23;20423;-81
2022/02/20 13:38:03;;;;;;;5.90;2.70;;;;;;;;;;6178506;23;20410;-78
2022/02/20 13:40:36;;;;;;;6.77;2.73;;;;;;;;;;6181169;23;20399;-82
2022/02/20 13:43:04;;;;;;;10.43;2.37;;;;;;;;;;6179846;23;20407;-82
2022/02/20 13:45:32;;;;;;;6.80;3.00;;;;;;;;;;6178272;23;20737;-81
2022/02/20 13:47:59;;;;;;;11.57;4.67;;;;;;;;;;6179455;23;20735;-78
2022/02/20 13:50:26;;;;;;;6.80;2.83;;;;;;;;;;6180665;23;20951;-78
2022/02/20 13:52:53;;;;;;;9.80;2.80;;;;;;;;;;6179790;23;20405;-76
2022/02/20 13:55:22;;;;;;;5.33;2.30;;;;;;;;;;6181375;23;20418;-78
2022/02/20 13:57:51;;;;;;;10.30;2.30;;;;;;;;;;6179781;23;20501;-80
2022/02/20 14:00:19;;;;;;;10.80;3.00;;;;;;;;;;6180427;23;20438;-80
2022/02/20 14:02:46;;;;;;;7.67;2.47;;;;;;;;;;6178519;23;20401;-79
2022/02/20 14:05:23;;;;;;;4.93;3.17;;;;;;;;;;6178600;23;20419;-80
2022/02/20 14:07:50;;;;;;;7.63;3.27;;;;;;;;;;6177946;23;20406;-78
2022/02/20 14:10:17;;;;;;;9.30;2.87;;;;;;;;;;6180332;23;20661;-80
2022/02/20 14:12:45;;;;;;;5.93;2.83;;;;;;;;;;6180184;23;20399;-80
2022/02/20 14:15:14;;;;;;;5.57;2.20;;;;;;;;;;6174304;23;20426;-79
2022/02/20 14:17:49;;;;;;;8.53;2.90;;;;;;;;;;6178335;23;20831;-79
2022/02/20 14:20:17;;;;;;;7.37;3.20;;;;;;;;;;6179513;23;20489;-79
2022/02/20 14:22:45;;;;;;;8.43;2.93;;;;;;;;;;6178928;23;20469;-77
2022/02/20 14:25:14;;;;;;;8.13;2.80;;;;;;;;;;6177761;23;20955;-79
2022/02/20 14:27:42;;;;;;;12.90;3.40;;;;;;;;;;6179742;23;20461;-76
2022/02/20 14:30:10;;;;;;;8.70;3.10;;;;;;;;;;6179432;23;20497;-78
2022/02/20 14:32:39;;;;;;;8.67;2.73;;;;;;;;;;6179740;23;20398;-80
2022/02/20 14:35:18;;;;;;;5.57;2.40;;;;;;;;;;6179784;23;21166;-75
2022/02/20 14:37:45;;;;;;;7.30;3.10;;;;;;;;;;6182510;23;20403;-79
2022/02/20 14:40:13;;;;;;;9.33;3.17;;;;;;;;;;6179077;23;20460;-79
2022/02/20 14:42:40;;;;;;;11.73;2.97;;;;;;;;;;6181115;23;20402;-79
2022/02/20 14:45:08;;;;;;;8.63;2.77;;;;;;;;;;6181521;23;20437;-78
2022/02/20 14:47:35;;;;;;;10.63;3.37;;;;;;;;;;6181388;23;20681;-83
2022/02/20 14:50:04;;;;;;;6.10;2.50;;;;;;;;;;6180984;23;20489;-81